Time;durP1;ratioP1;P1;durP2;ratioP2;P2;SDS_P1;SDS_P2;PMS_P1;PMS_P2;Temp;Humidity;BMP_temperature;BMP_pressure;BME280_temperature;BME280_humidity;BME280_pressure;Samples;Min_cycle;Max_cycle;Signal;HPM_P1;HPM_P2
2022/06/06 00:01:23;;;;;;;8.15;3.42;;;;;;;17.38;82.42;101285.28;1731457;81;25790;-54
2022/06/06 00:03:50;;;;;;;11.83;3.52;;;;;;;17.46;82.18;101289.36;1731549;82;25691;-55
2022/06/06 00:06:20;;;;;;;5.90;3.52;;;;;;;17.50;81.55;101295.31;1731334;82;25820;-56
2022/06/06 00:08:48;;;;;;;4.87;3.27;;;;;;;17.50;81.08;101303.47;1731531;81;25781;-56
2022/06/06 00:11:17;;;;;;;7.42;3.55;;;;;;;17.53;80.98;101302.63;1731609;82;27543;-55
2022/06/06 00:13:47;;;;;;;7.42;3.77;;;;;;;17.50;80.73;101301.63;1731776;81;25783;-54
2022/06/06 00:16:14;;;;;;;10.35;3.87;;;;;;;17.54;81.07;101299.41;1731605;81;25618;-54
2022/06/06 00:18:41;;;;;;;6.03;4.15;;;;;;;17.60;81.18;101301.44;1714034;83;25965;-54
2022/06/06 00:21:11;;;;;;;6.75;3.62;;;;;;;17.57;81.01;101298.22;1721052;83;25759;-55
2022/06/06 00:23:40;;;;;;;6.95;3.77;;;;;;;17.59;81.18;101300.27;1721432;83;27657;-54
2022/06/06 00:26:11;;;;;;;7.97;3.75;;;;;;;17.60;81.15;101307.41;1721108;83;25859;-56
2022/06/06 00:28:40;;;;;;;9.63;4.08;;;;;;;17.60;81.05;101304.69;1689431;84;25750;-56
2022/06/06 00:36:33;;;;;;;8.90;3.77;;;;;;;17.65;80.88;101297.72;1678795;84;29602;-56
2022/06/06 00:39:01;;;;;;;5.72;4.30;;;;;;;17.70;81.00;101299.06;1695849;84;25737;-54
2022/06/06 00:41:28;;;;;;;7.78;4.03;;;;;;;17.72;80.77;101307.39;1684870;84;25968;-54
2022/06/06 00:44:12;;;;;;;7.37;3.85;;;;;;;17.71;80.56;101311.66;1683962;85;26032;-55
2022/06/06 00:46:44;;;;;;;6.58;4.45;;;;;;;17.69;80.88;101302.31;1683706;84;25817;-56
2022/06/06 00:49:16;;;;;;;6.10;4.60;;;;;;;17.64;81.81;101308.26;1684840;85;27571;-53
2022/06/06 00:51:45;;;;;;;7.60;4.65;;;;;;;17.42;82.40;101305.70;1667437;85;25852;-54
2022/06/06 00:54:12;;;;;;;7.90;4.80;;;;;;;17.42;82.40;101305.70;1655736;86;25832;-55
2022/06/06 00:56:44;;;;;;;7.72;5.50;;;;;;;17.35;82.74;101302.80;1661352;86;25822;-55
2022/06/06 00:59:19;;;;;;;5.83;4.55;;;;;;;17.32;82.89;101300.40;1662801;83;25790;-56
2022/06/06 01:01:51;;;;;;;11.10;5.47;;;;;;;17.31;83.14;101303.30;1661307;84;28251;-53
2022/06/06 01:04:22;;;;;;;10.82;5.37;;;;;;;17.27;83.41;101296.48;1650234;85;25791;-55
2022/06/06 01:06:49;;;;;;;9.13;5.53;;;;;;;17.21;83.48;101298.86;1673224;85;25790;-56
2022/06/06 01:09:19;;;;;;;7.10;5.50;;;;;;;17.19;83.60;101298.17;1660920;84;25929;-54
2022/06/06 01:11:59;;;;;;;7.67;5.50;;;;;;;17.19;83.74;101297.34;1661381;85;25715;-56
2022/06/06 01:14:30;;;;;;;7.37;5.37;;;;;;;17.14;83.81;101293.76;1658038;86;27482;-55
2022/06/06 01:17:35;;;;;;;9.33;5.37;;;;;;;17.12;83.59;101288.98;1658314;86;25689;-54
2022/06/06 01:20:36;;;;;;;8.48;5.40;;;;;;;17.12;83.14;101298.50;1630097;86;25792;-55
2022/06/06 01:23:40;;;;;;;7.05;5.50;;;;;;;17.15;83.74;101297.31;1657406;86;25809;-55
2022/06/06 01:26:29;;;;;;;16.57;5.30;;;;;;;17.13;83.58;101300.20;1659461;84;25729;-54
2022/06/06 01:29:11;;;;;;;13.28;5.17;;;;;;;17.13;83.23;101297.98;1692154;84;27664;-55
2022/06/06 01:32:06;;;;;;;12.75;4.80;;;;;;;17.14;82.98;101288.81;1684903;84;25708;-55
2022/06/06 01:34:38;;;;;;;7.42;4.45;;;;;;;17.16;82.78;101284.94;1691897;84;25748;-54
2022/06/06 01:37:32;;;;;;;10.20;4.45;;;;;;;17.24;82.70;101284.08;1696996;84;25827;-55
2022/06/06 01:40:02;;;;;;;14.05;5.53;;;;;;;17.29;82.20;101287.16;1709591;81;26091;-55
2022/06/06 01:42:56;;;;;;;4.60;4.15;;;;;;;17.33;81.91;101284.43;1716212;82;28300;-55
2022/06/06 01:45:28;;;;;;;10.32;4.47;;;;;;;17.36;81.76;101288.67;1710995;82;25759;-53
2022/06/06 01:48:06;;;;;;;7.75;3.90;;;;;;;17.44;81.43;101292.76;1704620;82;25795;-55
2022/06/06 01:50:39;;;;;;;7.95;4.17;;;;;;;17.44;80.91;101290.03;1702159;82;25841;-55
2022/06/06 01:53:11;;;;;;;14.53;4.27;;;;;;;17.47;80.80;101295.15;1740072;81;25695;-55
2022/06/06 01:55:42;;;;;;;11.08;4.28;;;;;;;17.52;80.65;101285.98;1739826;82;27496;-55
2022/06/06 01:58:26;;;;;;;12.75;3.90;;;;;;;17.56;80.23;101289.71;1731563;82;25719;-55
2022/06/06 02:00:52;;;;;;;15.05;4.30;;;;;;;17.57;79.94;101288.17;1731568;81;25641;-54
2022/06/06 02:03:21;;;;;;;7.50;4.00;;;;;;;17.60;79.72;101291.92;1713460;83;26442;-55
2022/06/06 02:05:48;;;;;;;12.95;4.62;;;;;;;17.62;79.52;101294.47;1719790;83;25817;-54
2022/06/06 02:08:16;;;;;;;13.98;3.92;;;;;;;17.66;79.55;101289.88;1721241;83;27468;-55
2022/06/06 02:10:44;;;;;;;10.48;4.12;;;;;;;17.69;78.94;101296.87;1721210;83;25989;-55
2022/06/06 02:13:11;;;;;;;9.55;3.75;;;;;;;17.68;78.48;101300.61;1721234;83;25673;-54
2022/06/06 02:15:38;;;;;;;11.00;4.28;;;;;;;17.63;77.86;101301.12;1721163;83;25814;-55
2022/06/06 02:18:06;;;;;;;10.28;3.62;;;;;;;17.62;77.92;101297.19;1721061;83;25811;-55
2022/06/06 02:20:34;;;;;;;11.08;4.00;;;;;;;17.59;77.36;101294.83;1721536;83;27507;-55
2022/06/06 02:23:02;;;;;;;7.60;3.87;;;;;;;17.55;77.18;101290.23;1721201;83;25474;-54
2022/06/06 02:25:31;;;;;;;7.00;3.47;;;;;;;17.56;77.42;101289.22;1721591;83;25778;-55
2022/06/06 02:27:58;;;;;;;6.03;3.45;;;;;;;17.59;77.24;101293.47;1718207;83;26148;-55
2022/06/06 02:30:32;;;;;;;7.00;3.67;;;;;;;17.58;76.75;101287.68;1701431;82;25745;-55
2022/06/06 02:32:59;;;;;;;7.65;3.90;;;;;;;17.53;76.58;101295.83;1695680;84;27540;-55
2022/06/06 02:35:31;;;;;;;5.58;4.15;;;;;;;17.51;76.62;101296.53;1695972;84;25738;-54
2022/06/06 02:37:59;;;;;;;5.35;4.08;;;;;;;17.42;76.37;101296.18;1695106;83;25517;-55
2022/06/06 02:40:30;;;;;;;13.75;4.75;;;;;;;17.41;76.84;101297.69;1695672;84;25839;-55
2022/06/06 02:42:57;;;;;;;8.10;4.25;;;;;;;17.37;76.72;101298.53;1695683;83;25810;-55
2022/06/06 02:45:26;;;;;;;7.25;4.05;;;;;;;17.28;76.89;101291.38;1695751;84;27528;-56
2022/06/06 02:47:57;;;;;;;12.05;4.08;;;;;;;17.28;77.11;101291.38;1695682;84;25528;-55
2022/06/06 02:50:28;;;;;;;9.30;4.17;;;;;;;17.29;77.17;101296.67;1694424;83;25770;-55
2022/06/06 02:52:58;;;;;;;11.85;4.53;;;;;;;17.29;77.30;101299.39;1697854;84;25828;-55
2022/06/06 02:55:26;;;;;;;7.92;4.40;;;;;;;17.36;77.55;101292.26;1690140;84;25776;-55
2022/06/06 02:57:54;;;;;;;10.55;4.33;;;;;;;17.44;77.47;101298.20;1706044;83;27026;-55
2022/06/06 03:00:28;;;;;;;6.78;4.72;;;;;;;17.49;77.48;101294.48;1702177;83;25724;-54
2022/06/06 03:02:56;;;;;;;7.78;4.35;;;;;;;17.56;77.33;101292.44;1687112;84;25749;-55
2022/06/06 03:05:28;;;;;;;8.53;4.72;;;;;;;17.50;76.60;101297.55;1691037;84;25825;-55
2022/06/06 03:08:30;;;;;;;7.37;4.62;;;;;;;17.43;76.45;101299.25;1688970;84;25768;-55
2022/06/06 03:11:31;;;;;;;5.33;4.60;;;;;;;17.43;76.90;101298.37;1661897;84;27555;-52
2022/06/06 03:14:24;;;;;;;6.50;4.37;;;;;;;17.45;76.88;101302.63;1688841;84;25781;-55
2022/06/06 03:23:40;;;;;;;6.37;4.15;;;;;;;17.39;76.90;101305.19;1603205;89;25820;-55
2022/06/06 03:26:31;;;;;;;5.97;4.75;;;;;;;17.35;76.56;101308.72;1606584;88;28270;-56
2022/06/06 03:29:33;;;;;;;6.05;4.87;;;;;;;17.40;76.91;101309.58;1584067;89;25558;-55
2022/06/06 03:32:11;;;;;;;6.35;4.72;;;;;;;17.50;77.00;101305.70;1581895;90;25888;-54
2022/06/06 03:34:46;;;;;;;7.37;4.45;;;;;;;17.60;77.03;101303.33;1577718;90;25735;-54
2022/06/06 03:37:42;;;;;;;6.55;4.20;;;;;;;17.66;77.13;101302.12;1603695;89;25863;-55
2022/06/06 03:40:23;;;;;;;7.50;4.83;;;;;;;17.71;76.67;101310.30;1576863;89;28195;-55
2022/06/06 03:43:01;;;;;;;10.28;4.37;;;;;;;17.66;76.36;101314.88;1577621;89;25977;-55
2022/06/06 03:46:02;;;;;;;5.00;4.40;;;;;;;17.70;76.68;101317.62;1604042;88;25871;-55
2022/06/06 03:48:55;;;;;;;11.83;4.30;;;;;;;17.76;76.68;101317.42;1603499;89;25851;-53
2022/06/06 03:52:09;;;;;;;7.30;4.28;;;;;;;17.77;76.08;101317.77;1604569;88;26123;-55
2022/06/06 03:55:13;;;;;;;10.65;4.30;;;;;;;17.77;75.76;101321.84;1698865;81;27510;-55
2022/06/06 03:57:42;;;;;;;10.90;4.80;;;;;;;17.71;75.29;101319.29;1744310;81;26117;-55
2022/06/06 04:00:13;;;;;;;6.30;4.53;;;;;;;17.71;75.55;101323.90;1723753;82;25811;-54
2022/06/06 04:02:43;;;;;;;10.82;5.85;;;;;;;17.66;75.38;101318.44;1724760;82;25803;-54
2022/06/06 04:05:15;;;;;;;12.00;5.17;;;;;;;17.59;75.03;101327.47;1736881;81;25977;-54
2022/06/06 04:07:42;;;;;;;11.80;7.42;;;;;;;17.53;75.16;101323.02;1735835;82;27500;-55
2022/06/06 04:10:13;;;;;;;10.55;4.83;;;;;;;17.56;75.70;101325.08;1726631;83;25709;-55
2022/06/06 04:13:07;;;;;;;11.05;4.70;;;;;;;17.58;75.81;101326.59;1726863;83;25812;-55
2022/06/06 04:15:45;;;;;;;13.65;4.17;;;;;;;17.66;76.10;101325.77;1699150;83;25837;-55
2022/06/06 04:18:52;;;;;;;6.30;4.03;;;;;;;17.77;76.10;101330.88;1726695;82;25522;-55
2022/06/06 04:21:45;;;;;;;8.28;4.33;;;;;;;17.84;76.06;101331.89;1726810;81;27547;-55
2022/06/06 04:24:24;;;;;;;9.68;4.65;;;;;;;17.92;75.88;101336.49;1726916;81;25729;-55
2022/06/06 04:27:14;;;;;;;7.92;4.65;;;;;;;17.94;75.77;101334.95;1727331;83;25756;-55
2022/06/06 04:30:04;;;;;;;5.62;4.20;;;;;;;17.97;75.64;101337.38;1680538;83;25809;-54
2022/06/06 04:32:55;;;;;;;17.90;4.92;;;;;;;18.02;75.45;101347.75;1670235;85;25557;-56
2022/06/06 04:35:48;;;;;;;6.22;3.92;;;;;;;18.09;75.51;101348.23;1670107;85;28793;-55
2022/06/06 04:38:22;;;;;;;9.03;4.37;;;;;;;18.17;75.32;101348.74;1670085;85;25754;-54
2022/06/06 04:41:13;;;;;;;8.48;4.35;;;;;;;18.21;75.32;101356.05;1670118;85;25789;-55
2022/06/06 04:44:00;;;;;;;10.45;4.33;;;;;;;18.25;75.15;101354.17;1669248;85;25814;-55
2022/06/06 04:47:02;;;;;;;7.75;4.05;;;;;;;18.33;74.87;101351.09;1670222;85;26027;-54
2022/06/06 04:49:32;;;;;;;8.03;4.00;;;;;;;18.42;74.54;101354.13;1689267;82;27725;-55
2022/06/06 04:52:02;;;;;;;7.33;3.75;;;;;;;18.46;74.28;101363.15;1700321;83;25740;-55
2022/06/06 04:54:32;;;;;;;9.48;4.12;;;;;;;18.54;74.02;101368.23;1699208;83;25758;-54
2022/06/06 04:57:01;;;;;;;6.70;4.03;;;;;;;18.56;73.89;101368.91;1708887;83;26416;-54
2022/06/06 04:59:30;;;;;;;16.00;5.15;;;;;;;18.61;73.53;101370.59;1713333;82;25821;-55
2022/06/06 05:02:02;;;;;;;14.45;4.35;;;;;;;18.63;73.21;101371.80;1717882;83;27610;-54
2022/06/06 05:04:30;;;;;;;6.20;3.87;;;;;;;18.65;73.03;101377.41;1681560;83;25818;-55
2022/06/06 05:07:32;;;;;;;15.83;3.83;;;;;;;18.61;73.11;101371.45;1699911;83;25615;-53
2022/06/06 05:10:30;;;;;;;7.35;4.10;;;;;;;18.74;73.32;101378.22;1706757;83;25736;-54
2022/06/06 05:13:28;;;;;;;5.03;3.75;;;;;;;18.78;73.00;101384.50;1707147;83;25845;-54
2022/06/06 05:16:21;;;;;;;6.22;3.83;;;;;;;18.85;72.84;101383.30;1700389;83;27495;-55
2022/06/06 05:19:12;;;;;;;12.35;4.35;;;;;;;18.99;72.66;101386.36;1697379;84;25784;-56
2022/06/06 05:22:06;;;;;;;11.12;3.92;;;;;;;19.11;72.53;101389.01;1698464;83;25643;-55
2022/06/06 05:25:03;;;;;;;7.65;4.08;;;;;;;19.27;72.45;101392.70;1689650;84;25914;-54
2022/06/06 05:28:00;;;;;;;6.12;3.30;;;;;;;19.44;72.31;101390.71;1711875;83;25789;-54
2022/06/06 05:30:49;;;;;;;6.33;3.65;;;;;;;19.54;71.81;101391.34;1671470;85;27505;-55
2022/06/06 05:33:37;;;;;;;8.90;3.37;;;;;;;19.66;71.35;101389.03;1678250;83;25765;-55
2022/06/06 05:36:15;;;;;;;13.78;3.70;;;;;;;19.76;71.24;101392.91;1697467;84;25746;-54
2022/06/06 05:39:22;;;;;;;6.40;3.33;;;;;;;19.85;71.22;101387.22;1698109;84;25804;-55
2022/06/06 05:42:00;;;;;;;5.45;3.55;;;;;;;19.99;70.75;101394.30;1698526;84;25828;-55
2022/06/06 05:44:44;;;;;;;9.25;3.50;;;;;;;20.13;70.51;101395.34;1701557;83;28003;-56
2022/06/06 05:47:45;;;;;;;7.75;3.17;;;;;;;20.20;68.83;101392.23;1696845;82;25728;-55
2022/06/06 05:50:29;;;;;;;5.78;3.58;;;;;;;20.12;68.79;101386.31;1697290;84;25682;-55
2022/06/06 05:53:26;;;;;;;6.28;4.62;;;;;;;20.09;68.10;101388.03;1675051;84;25993;-55
2022/06/06 05:56:10;;;;;;;6.67;5.17;;;;;;;20.02;67.91;101389.81;1698864;83;25854;-55
2022/06/06 05:58:59;;;;;;;8.98;4.20;;;;;;;19.94;67.57;101385.29;1683977;82;27462;-54
2022/06/06 06:02:09;;;;;;;19.27;4.53;;;;;;;19.86;67.84;101388.05;1697275;83;26106;-55
2022/06/06 06:04:57;;;;;;;12.58;3.77;;;;;;;19.79;68.24;101392.02;1699741;84;25527;-56
2022/06/06 06:07:44;;;;;;;4.72;3.85;;;;;;;19.75;68.57;101393.94;1679218;83;26721;-55
2022/06/06 06:10:34;;;;;;;5.83;3.10;;;;;;;19.74;68.64;101401.78;1723509;83;25753;-55
2022/06/06 06:13:27;;;;;;;8.33;3.00;;;;;;;19.73;66.83;101397.35;1723778;83;27051;-55
2022/06/06 06:15:59;;;;;;;20.92;3.80;;;;;;;19.62;65.08;101388.55;1721601;83;25829;-55
2022/06/06 06:18:43;;;;;;;14.68;3.35;;;;;;;19.61;65.30;101389.58;1693574;83;25568;-55
2022/06/06 06:21:21;;;;;;;7.05;3.33;;;;;;;19.60;65.14;101381.05;1678611;85;25594;-55
2022/06/06 06:23:56;;;;;;;9.88;3.42;;;;;;;19.55;65.53;101397.13;1685967;85;25819;-55
2022/06/06 06:26:24;;;;;;;11.90;4.00;;;;;;;19.51;65.96;101395.78;1684926;85;27445;-55
2022/06/06 06:28:52;;;;;;;6.72;3.50;;;;;;;19.51;66.30;101393.05;1679445;84;25733;-55
2022/06/06 06:31:57;;;;;;;9.13;4.47;;;;;;;19.53;66.56;101389.63;1692616;84;25796;-55
2022/06/06 06:34:35;;;;;;;6.00;3.45;;;;;;;19.56;66.44;101389.28;1692887;84;25934;-55
2022/06/06 06:37:45;;;;;;;12.43;5.22;;;;;;;19.57;66.42;101381.44;1691446;84;25549;-55
2022/06/06 06:40:37;;;;;;;8.30;3.55;;;;;;;19.61;66.27;101378.66;1695840;83;28498;-55
2022/06/06 06:43:21;;;;;;;12.63;3.50;;;;;;;19.61;66.35;101371.84;1684883;85;25792;-55
2022/06/06 06:46:00;;;;;;;17.37;3.58;;;;;;;19.69;66.81;101368.20;1690709;83;25773;-56
2022/06/06 06:48:37;;;;;;;9.18;2.40;;;;;;;19.81;66.27;101368.63;1687945;84;26695;-55
2022/06/06 06:51:15;;;;;;;22.60;2.67;;;;;;;19.91;62.04;101369.27;1675256;83;27357;-56
2022/06/06 06:54:00;;;;;;;4.12;2.62;;;;;;;19.99;61.84;101358.80;1673606;85;27501;-55
2022/06/06 06:56:38;;;;;;;6.15;2.40;;;;;;;20.06;60.90;101358.88;1683109;85;25907;-56
2022/06/06 06:59:19;;;;;;;12.05;3.90;;;;;;;20.11;61.25;101355.94;1706291;83;26556;-55
2022/06/06 07:08:33;;;;;;;2.72;2.08;;;;;;;20.35;61.07;101359.98;1699676;83;27671;-55
2022/06/06 07:11:36;;;;;;;9.13;2.58;;;;;;;20.40;59.41;101358.38;1690451;84;25820;-55
2022/06/06 07:14:12;;;;;;;8.45;2.22;;;;;;;20.52;59.06;101355.20;1690562;84;25769;-55
2022/06/06 07:16:41;;;;;;;9.35;2.80;;;;;;;20.56;59.23;101356.00;1689863;84;25821;-54
2022/06/06 07:19:13;;;;;;;7.75;2.05;;;;;;;20.65;59.91;101356.73;1688613;84;25815;-54
2022/06/06 07:21:45;;;;;;;11.03;2.30;;;;;;;20.74;60.49;101354.80;1687926;84;27470;-54
2022/06/06 07:24:20;;;;;;;5.30;2.15;;;;;;;20.83;58.91;101361.86;1688530;85;25774;-54
2022/06/06 07:26:49;;;;;;;7.20;1.60;;;;;;;20.93;55.75;101354.72;1686514;83;25825;-54
2022/06/06 07:29:20;;;;;;;8.43;1.20;;;;;;;21.06;53.81;101349.44;1692343;84;25745;-55
2022/06/06 07:32:05;;;;;;;2.87;1.12;;;;;;;21.17;55.12;101352.69;1699405;84;26117;-55
2022/06/06 07:35:04;;;;;;;5.75;2.08;;;;;;;21.26;53.45;101352.39;1697552;84;28573;-55
2022/06/06 07:37:59;;;;;;;12.78;1.90;;;;;;;21.39;53.17;101346.22;1702970;84;25986;-55
2022/06/06 07:40:51;;;;;;;6.47;1.50;;;;;;;21.56;52.25;101340.48;1707602;84;25823;-56
2022/06/06 07:43:50;;;;;;;9.50;1.62;;;;;;;21.74;52.85;101349.63;1703479;82;25767;-55
2022/06/06 07:46:38;;;;;;;11.12;1.20;;;;;;;21.92;50.94;101352.45;1707428;82;25766;-55
2022/06/06 07:49:11;;;;;;;6.65;1.60;;;;;;;22.13;49.36;101356.50;1677799;83;27682;-55
2022/06/06 07:51:50;;;;;;;17.65;1.50;;;;;;;22.26;50.82;101352.18;1719934;82;25824;-55
2022/06/06 07:54:42;;;;;;;6.62;1.70;;;;;;;22.42;47.96;101351.89;1699265;83;25778;-55
2022/06/06 07:57:52;;;;;;;12.50;1.57;;;;;;;22.58;48.45;101350.73;1682381;84;25908;-56
2022/06/06 08:00:28;;;;;;;1.57;1.20;;;;;;;22.81;49.17;101354.55;1715118;83;25741;-53
2022/06/06 08:03:27;;;;;;;6.80;1.25;;;;;;;23.03;48.01;101354.42;1718849;83;27335;-56
2022/06/06 08:06:23;;;;;;;8.00;1.80;;;;;;;23.21;48.28;101353.03;1693512;83;25980;-55
2022/06/06 08:09:04;;;;;;;7.35;1.60;;;;;;;23.38;48.36;101341.99;1663889;86;25658;-55
2022/06/06 08:12:08;;;;;;;7.78;1.72;;;;;;;23.54;47.83;101339.39;1626441;86;26810;-55
2022/06/06 08:14:57;;;;;;;5.78;1.60;;;;;;;23.55;46.10;101345.72;1680365;84;25807;-55
2022/06/06 08:17:46;;;;;;;7.40;1.40;;;;;;;23.55;46.68;101338.34;1695359;84;27504;-55
2022/06/06 08:20:22;;;;;;;5.12;1.62;;;;;;;23.61;45.95;101335.29;1683842;83;26609;-55
2022/06/06 08:22:52;;;;;;;5.87;2.10;;;;;;;23.68;46.37;101329.78;1683953;85;25744;-55
2022/06/06 08:25:20;;;;;;;3.77;1.20;;;;;;;23.75;45.05;101330.66;1683795;85;25996;-56
2022/06/06 08:27:50;;;;;;;5.45;1.60;;;;;;;23.87;43.84;101325.37;1684248;84;25468;-56
2022/06/06 08:30:21;;;;;;;7.30;1.22;;;;;;;23.97;43.67;101329.95;1692816;84;27515;-57
2022/06/06 08:32:48;;;;;;;1.42;1.30;;;;;;;24.11;43.58;101330.78;1688153;83;25524;-56
2022/06/06 08:35:17;;;;;;;4.45;0.90;;;;;;;24.27;44.14;101325.34;1684317;83;25531;-56
2022/06/06 08:38:24;;;;;;;4.80;1.60;;;;;;;24.42;42.88;101331.16;1684917;85;25806;-56
2022/06/06 08:41:30;;;;;;;15.55;1.77;;;;;;;24.62;42.07;101341.55;1683574;85;25796;-57
2022/06/06 08:44:17;;;;;;;2.47;1.27;;;;;;;24.73;41.14;101340.60;1684806;84;28342;-57
2022/06/06 08:46:59;;;;;;;4.12;1.02;;;;;;;24.80;40.31;101340.04;1672951;85;25859;-56
2022/06/06 08:53:23;;;;;;;5.27;1.20;;;;;;;24.83;41.12;101336.32;1687281;83;25806;-56
2022/06/06 08:56:23;;;;;;;6.87;1.30;;;;;;;25.00;40.47;101336.69;1710454;82;26510;-56
2022/06/06 08:59:05;;;;;;;8.73;1.62;;;;;;;25.33;37.97;101336.20;1718693;83;27624;-58
2022/06/06 09:01:49;;;;;;;5.20;1.32;;;;;;;25.58;37.50;101336.28;1714198;82;25739;-59
2022/06/06 09:05:04;;;;;;;8.50;1.52;;;;;;;25.89;37.91;101325.45;1719681;82;25711;-59
2022/06/06 09:08:10;;;;;;;2.37;1.10;;;;;;;26.00;36.83;101330.20;1702558;83;25804;-58
2022/06/06 09:10:54;;;;;;;7.72;1.70;;;;;;;25.83;38.78;101332.70;1718980;83;25645;-58
2022/06/06 09:14:08;;;;;;;5.65;1.55;;;;;;;25.69;39.06;101331.95;1718271;83;27506;-57
2022/06/06 09:17:16;;;;;;;2.85;1.20;;;;;;;25.58;39.23;101340.41;1719115;82;26151;-58
2022/06/06 09:20:18;;;;;;;10.23;1.45;;;;;;;25.43;39.58;101333.84;1719022;82;25902;-57
2022/06/06 09:23:05;;;;;;;7.67;1.45;;;;;;;25.34;39.51;101334.27;1718682;81;26781;-56
2022/06/06 09:26:01;;;;;;;10.28;1.30;;;;;;;25.24;39.70;101324.58;1725785;81;26331;-57
2022/06/06 09:29:22;;;;;;;1.22;1.00;;;;;;;25.12;39.41;101329.12;1729980;82;27646;-57
2022/06/06 09:32:06;;;;;;;8.68;1.60;;;;;;;25.08;39.01;101331.47;1728825;82;26003;-57
2022/06/06 09:34:56;;;;;;;5.53;1.10;;;;;;;24.99;38.86;101321.77;1726381;82;26483;-57
2022/06/06 09:37:54;;;;;;;2.58;1.55;;;;;;;24.96;39.58;101319.45;1721471;81;26523;-56
2022/06/06 09:41:08;;;;;;;4.97;2.50;;;;;;;24.96;39.39;101323.58;1705913;82;25800;-57
2022/06/06 09:44:13;;;;;;;6.13;1.67;;;;;;;25.05;37.62;101315.92;1635481;86;27501;-57
2022/06/06 09:47:08;;;;;;;12.00;1.47;;;;;;;25.69;38.61;101307.16;1643720;84;26012;-56
2022/06/06 09:49:59;;;;;;;9.85;2.33;;;;;;;26.49;38.00;101312.45;1721848;83;25706;-55
2022/06/06 09:52:46;;;;;;;3.50;1.10;;;;;;;26.84;36.30;101311.87;1721832;83;26465;-56
2022/06/06 09:59:02;;;;;;;2.62;0.90;;;;;;;26.75;35.61;101310.47;1723571;83;27647;-55
2022/06/06 10:02:06;;;;;;;7.42;1.22;;;;;;;26.46;35.32;101310.69;1747910;81;25757;-56
2022/06/06 10:04:59;;;;;;;2.47;1.15;;;;;;;26.27;35.81;101306.53;1758088;81;25835;-57
2022/06/06 10:07:41;;;;;;;4.92;1.00;;;;;;;25.91;37.36;101316.39;1732708;82;25819;-56
2022/06/06 10:10:51;;;;;;;13.62;1.32;;;;;;;25.71;37.42;101308.30;1735733;81;25955;-57
2022/06/06 10:13:52;;;;;;;8.73;1.45;;;;;;;25.48;36.60;101313.89;1708711;81;27600;-56
2022/06/06 10:16:39;;;;;;;14.13;1.60;;;;;;;25.33;37.56;101312.79;1732693;81;25777;-56
2022/06/06 10:19:39;;;;;;;7.75;0.98;;;;;;;25.21;38.29;101311.28;1734125;81;25701;-57
2022/06/06 10:22:22;;;;;;;4.95;1.20;;;;;;;25.36;39.09;101312.88;1753940;81;25804;-57
2022/06/06 10:25:00;;;;;;;8.40;1.32;;;;;;;25.59;38.57;101310.43;1732460;81;25965;-56
2022/06/06 10:28:00;;;;;;;6.30;1.35;;;;;;;25.81;38.79;101305.89;1722289;83;27446;-57
2022/06/06 10:30:51;;;;;;;7.35;1.32;;;;;;;26.00;37.87;101306.77;1702513;81;25552;-57
2022/06/06 10:33:40;;;;;;;8.68;1.27;;;;;;;26.18;37.05;101308.77;1689036;83;25845;-55
2022/06/06 10:36:40;;;;;;;4.20;1.00;;;;;;;26.18;35.87;101307.38;1760789;81;26160;-55
2022/06/06 10:39:30;;;;;;;16.25;2.02;;;;;;;26.07;35.65;101307.58;1757881;81;25512;-56
2022/06/06 10:42:40;;;;;;;11.90;1.42;;;;;;;25.99;36.15;101306.48;1742353;82;27671;-56
2022/06/06 10:45:24;;;;;;;12.65;3.90;;;;;;;25.90;36.69;101309.22;1742277;82;25773;-55
2022/06/06 10:48:28;;;;;;;7.35;2.55;;;;;;;25.76;37.14;101305.73;1708354;83;25759;-56
2022/06/06 10:51:40;;;;;;;6.62;1.75;;;;;;;25.69;37.69;101314.05;1697188;83;25822;-55
2022/06/06 10:54:35;;;;;;;5.45;1.37;;;;;;;25.70;38.11;101310.74;1693183;83;25534;-56
2022/06/06 10:57:32;;;;;;;10.13;1.07;;;;;;;25.76;36.58;101312.63;1700575;84;27547;-55
2022/06/06 11:00:10;;;;;;;7.47;1.07;;;;;;;25.82;37.66;101299.31;1700018;83;25788;-55
2022/06/06 11:03:12;;;;;;;10.95;1.42;;;;;;;26.19;37.16;101299.94;1700375;84;25658;-55
2022/06/06 11:05:53;;;;;;;2.92;1.10;;;;;;;26.57;34.88;101297.52;1700287;82;26807;-55
2022/06/06 11:08:57;;;;;;;9.65;0.90;;;;;;;26.80;34.05;101295.45;1700155;84;25813;-55
2022/06/06 11:12:06;;;;;;;4.28;1.27;;;;;;;26.94;34.79;101298.05;1700164;84;29515;-55
2022/06/06 11:14:37;;;;;;;5.75;1.25;;;;;;;27.17;34.55;101295.38;1716845;82;25815;-56
2022/06/06 11:17:27;;;;;;;3.08;0.85;;;;;;;27.36;34.18;101299.45;1721443;83;25755;-55
2022/06/06 11:20:22;;;;;;;5.33;1.00;;;;;;;27.41;32.68;101298.20;1685284;83;25985;-56
2022/06/06 11:23:14;;;;;;;3.10;0.88;;;;;;;27.47;33.31;101298.69;1722654;81;25777;-55
2022/06/06 11:26:09;;;;;;;11.05;1.37;;;;;;;27.61;32.66;101290.17;1700123;84;27539;-56
2022/06/06 11:29:03;;;;;;;2.52;1.02;;;;;;;27.79;32.88;101294.77;1683722;83;25779;-55
2022/06/06 11:32:04;;;;;;;8.43;0.90;;;;;;;27.98;31.61;101294.63;1694595;83;37296;-56
2022/06/06 11:35:14;;;;;;;1.25;0.70;;;;;;;28.23;32.15;101291.66;1699108;83;26494;-57
2022/06/06 11:38:07;;;;;;;4.92;1.00;;;;;;;28.82;31.50;101284.63;1699632;83;25783;-56
2022/06/06 11:41:23;;;;;;;16.10;1.82;;;;;;;29.19;30.66;101284.75;1707017;82;27495;-56
2022/06/06 11:44:10;;;;;;;1.82;1.30;;;;;;;29.35;31.57;101284.00;1724495;83;25934;-56
2022/06/06 11:47:09;;;;;;;23.07;1.52;;;;;;;29.44;31.68;101286.36;1718955;81;25793;-56
2022/06/06 11:50:11;;;;;;;21.10;1.87;;;;;;;29.46;31.60;101285.53;1658982;86;25849;-56
2022/06/06 11:53:03;;;;;;;10.68;1.72;;;;;;;29.31;29.72;101291.09;1710713;83;25830;-55
2022/06/06 11:55:45;;;;;;;8.20;1.07;;;;;;;28.80;31.29;101292.89;1706101;83;27672;-56
2022/06/06 11:59:10;;;;;;;7.67;1.25;;;;;;;28.50;31.67;101289.74;1718838;83;25716;-56
2022/06/06 12:01:51;;;;;;;9.35;1.57;;;;;;;28.11;31.49;101293.05;1719098;83;25800;-55
2022/06/06 12:04:37;;;;;;;7.85;1.60;;;;;;;27.62;32.61;101287.70;1719198;83;26446;-57
2022/06/06 12:07:36;;;;;;;7.12;1.60;;;;;;;27.28;32.17;101295.66;1718038;83;25766;-56
2022/06/06 12:10:23;;;;;;;7.97;1.80;;;;;;;27.04;33.48;101285.89;1715806;83;27664;-55
2022/06/06 12:13:10;;;;;;;5.78;1.25;;;;;;;26.79;34.18;101291.00;1713133;83;26122;-55
2022/06/06 12:16:20;;;;;;;13.25;1.42;;;;;;;26.73;34.76;101283.63;1713197;83;25788;-56
2022/06/06 12:19:04;;;;;;;9.38;1.22;;;;;;;26.78;34.44;101276.90;1713063;83;25687;-56
2022/06/06 12:22:12;;;;;;;10.63;1.30;;;;;;;26.82;34.79;101285.55;1713180;83;25686;-56
2022/06/06 12:25:07;;;;;;;9.83;1.30;;;;;;;26.86;35.50;101273.81;1691180;83;27686;-55
2022/06/06 12:28:22;;;;;;;5.08;1.52;;;;;;;26.71;34.70;101273.36;1690425;84;25797;-55
2022/06/06 12:31:15;;;;;;;8.35;1.30;;;;;;;26.53;34.42;101270.92;1708919;83;25760;-56
2022/06/06 12:33:49;;;;;;;18.82;1.50;;;;;;;26.46;35.30;101271.55;1719354;82;26746;-55
2022/06/06 12:36:24;;;;;;;3.50;1.12;;;;;;;26.44;35.88;101264.03;1718459;83;25731;-55
2022/06/06 12:38:59;;;;;;;7.00;1.02;;;;;;;26.46;35.37;101259.14;1702849;83;28653;-56
2022/06/06 12:42:14;;;;;;;5.35;0.95;;;;;;;26.61;35.48;101264.78;1717699;83;25680;-55
2022/06/06 12:44:53;;;;;;;9.00;1.27;;;;;;;26.83;35.39;101255.50;1717448;82;25791;-55
2022/06/06 12:47:56;;;;;;;3.92;1.07;;;;;;;27.17;34.71;101259.48;1713146;81;26608;-54
2022/06/06 12:51:02;;;;;;;6.78;1.20;;;;;;;27.36;34.21;101256.64;1703912;83;26417;-55
2022/06/06 12:54:03;;;;;;;9.18;1.37;;;;;;;27.47;32.91;101254.48;1718575;83;26886;-55
2022/06/06 12:56:53;;;;;;;5.47;1.17;;;;;;;27.65;32.82;101251.31;1718858;83;25790;-55
2022/06/06 12:59:36;;;;;;;9.05;1.20;;;;;;;27.85;32.70;101252.34;1718064;83;25746;-57
2022/06/06 13:02:15;;;;;;;6.22;1.37;;;;;;;28.08;32.57;101247.37;1717527;83;25968;-57
2022/06/06 13:05:10;;;;;;;4.20;1.15;;;;;;;28.32;32.66;101250.64;1683171;83;25717;-56
2022/06/06 13:08:08;;;;;;;13.60;1.32;;;;;;;28.74;31.59;101242.11;1726630;82;27518;-55
2022/06/06 13:11:15;;;;;;;3.80;1.12;;;;;;;29.20;31.16;101241.59;1729303;82;25707;-55